sensor_id;sensor_type;location;lat;lon;timestamp;P1;durP1;ratioP1;P2;durP2;ratioP2
47481;SDS011;33219;47.410;9.730;2024-03-23T00:55:49;5.60;;;2.40;;
47481;SDS011;33219;47.410;9.730;2024-03-23T00:58:17;4.15;;;2.70;;
47481;SDS011;33219;47.410;9.730;2024-03-23T01:00:45;3.33;;;2.30;;
47481;SDS011;33219;47.410;9.730;2024-03-23T01:03:12;4.50;;;2.25;;
47481;SDS011;33219;47.410;9.730;2024-03-23T01:05:40;3.50;;;2.27;;
47481;SDS011;33219;47.410;9.730;2024-03-23T01:08:07;4.37;;;3.22;;
47481;SDS011;33219;47.410;9.730;2024-03-23T01:10:35;6.05;;;3.35;;
47481;SDS011;33219;47.410;9.730;2024-03-23T01:13:02;5.22;;;3.17;;
47481;SDS011;33219;47.410;9.730;2024-03-23T01:15:30;4.50;;;3.12;;
47481;SDS011;33219;47.410;9.730;2024-03-23T01:17:58;7.10;;;3.08;;
47481;SDS011;33219;47.410;9.730;2024-03-23T01:20:25;3.02;;;2.08;;
47481;SDS011;33219;47.410;9.730;2024-03-23T01:22:53;3.75;;;2.17;;
47481;SDS011;33219;47.410;9.730;2024-03-23T01:25:21;5.00;;;2.10;;
47481;SDS011;33219;47.410;9.730;2024-03-23T01:27:48;3.25;;;2.12;;
47481;SDS011;33219;47.410;9.730;2024-03-23T01:30:16;4.45;;;2.65;;
47481;SDS011;33219;47.410;9.730;2024-03-23T01:32:43;2.95;;;1.98;;
47481;SDS011;33219;47.410;9.730;2024-03-23T01:35:12;3.92;;;2.60;;
47481;SDS011;33219;47.410;9.730;2024-03-23T01:37:40;5.17;;;2.72;;
47481;SDS011;33219;47.410;9.730;2024-03-23T01:40:07;5.20;;;2.72;;
47481;SDS011;33219;47.410;9.730;2024-03-23T01:42:35;4.50;;;3.30;;
47481;SDS011;33219;47.410;9.730;2024-03-23T01:45:04;4.17;;;3.12;;
47481;SDS011;33219;47.410;9.730;2024-03-23T01:47:34;3.58;;;2.42;;
47481;SDS011;33219;47.410;9.730;2024-03-23T01:50:02;3.85;;;2.15;;
47481;SDS011;33219;47.410;9.730;2024-03-23T01:52:30;5.37;;;2.65;;
47481;SDS011;33219;47.410;9.730;2024-03-23T01:54:57;3.67;;;2.17;;
47481;SDS011;33219;47.410;9.730;2024-03-23T01:57:25;3.85;;;2.20;;
47481;SDS011;33219;47.410;9.730;2024-03-23T01:59:52;4.20;;;2.33;;
47481;SDS011;33219;47.410;9.730;2024-03-23T02:02:20;4.35;;;2.22;;
47481;SDS011;33219;47.410;9.730;2024-03-23T02:04:47;5.42;;;2.35;;
47481;SDS011;33219;47.410;9.730;2024-03-23T02:07:15;6.42;;;2.60;;
47481;SDS011;33219;47.410;9.730;2024-03-23T02:09:43;3.05;;;2.10;;
47481;SDS011;33219;47.410;9.730;2024-03-23T02:12:11;5.42;;;2.77;;
47481;SDS011;33219;47.410;9.730;2024-03-23T02:22:41;4.22;;;2.90;;
47481;SDS011;33219;47.410;9.730;2024-03-23T02:25:09;5.62;;;3.00;;
47481;SDS011;33219;47.410;9.730;2024-03-23T02:27:36;5.20;;;3.00;;
47481;SDS011;33219;47.410;9.730;2024-03-23T02:30:06;3.92;;;2.65;;
47481;SDS011;33219;47.410;9.730;2024-03-23T02:32:34;4.85;;;3.02;;
47481;SDS011;33219;47.410;9.730;2024-03-23T02:35:01;5.85;;;3.37;;
47481;SDS011;33219;47.410;9.730;2024-03-23T02:37:30;6.33;;;3.33;;
47481;SDS011;33219;47.410;9.730;2024-03-23T02:39:58;3.50;;;2.20;;
47481;SDS011;33219;47.410;9.730;2024-03-23T02:42:26;4.92;;;2.50;;
47481;SDS011;33219;47.410;9.730;2024-03-23T02:44:53;4.70;;;2.22;;
47481;SDS011;33219;47.410;9.730;2024-03-23T02:47:21;3.12;;;2.02;;
47481;SDS011;33219;47.410;9.730;2024-03-23T02:49:48;4.58;;;2.27;;
47481;SDS011;33219;47.410;9.730;2024-03-23T02:52:16;4.55;;;2.08;;
47481;SDS011;33219;47.410;9.730;2024-03-23T02:54:44;2.80;;;1.90;;
47481;SDS011;33219;47.410;9.730;2024-03-23T02:57:11;4.78;;;2.08;;
47481;SDS011;33219;47.410;9.730;2024-03-23T02:59:39;3.47;;;2.40;;
47481;SDS011;33219;47.410;9.730;2024-03-23T03:02:06;4.67;;;2.60;;
47481;SDS011;33219;47.410;9.730;2024-03-23T03:04:34;3.85;;;2.52;;
47481;SDS011;33219;47.410;9.730;2024-03-23T03:07:01;3.45;;;2.30;;
47481;SDS011;33219;47.410;9.730;2024-03-23T03:09:29;5.15;;;2.77;;
47481;SDS011;33219;47.410;9.730;2024-03-23T03:11:58;6.03;;;2.90;;
47481;SDS011;33219;47.410;9.730;2024-03-23T03:14:26;4.75;;;2.60;;
47481;SDS011;33219;47.410;9.730;2024-03-23T03:16:54;6.20;;;3.25;;
47481;SDS011;33219;47.410;9.730;2024-03-23T03:19:21;6.17;;;3.10;;
47481;SDS011;33219;47.410;9.730;2024-03-23T03:21:49;7.37;;;2.95;;
47481;SDS011;33219;47.410;9.730;2024-03-23T03:24:16;4.80;;;3.10;;
47481;SDS011;33219;47.410;9.730;2024-03-23T03:26:44;6.33;;;2.55;;
47481;SDS011;33219;47.410;9.730;2024-03-23T03:29:12;4.85;;;2.83;;
47481;SDS011;33219;47.410;9.730;2024-03-23T03:31:40;4.25;;;2.25;;
47481;SDS011;33219;47.410;9.730;2024-03-23T03:34:07;4.72;;;2.20;;
47481;SDS011;33219;47.410;9.730;2024-03-23T03:36:35;3.75;;;2.35;;
47481;SDS011;33219;47.410;9.730;2024-03-23T03:39:03;3.50;;;2.17;;
47481;SDS011;33219;47.410;9.730;2024-03-23T03:41:31;4.58;;;2.17;;
47481;SDS011;33219;47.410;9.730;2024-03-23T03:43:58;2.72;;;2.00;;
47481;SDS011;33219;47.410;9.730;2024-03-23T03:46:28;3.83;;;2.25;;
47481;SDS011;33219;47.410;9.730;2024-03-23T03:48:55;3.22;;;2.10;;
47481;SDS011;33219;47.410;9.730;2024-03-23T03:51:23;3.05;;;1.98;;
47481;SDS011;33219;47.410;9.730;2024-03-23T03:53:50;4.15;;;2.02;;
47481;SDS011;33219;47.410;9.730;2024-03-23T03:56:18;2.65;;;2.02;;
47481;SDS011;33219;47.410;9.730;2024-03-23T03:58:46;3.95;;;2.20;;
47481;SDS011;33219;47.410;9.730;2024-03-23T04:01:13;3.83;;;2.10;;
47481;SDS011;33219;47.410;9.730;2024-03-23T04:03:41;5.20;;;2.00;;
47481;SDS011;33219;47.410;9.730;2024-03-23T04:06:10;2.95;;;2.10;;
47481;SDS011;33219;47.410;9.730;2024-03-23T04:08:37;3.22;;;2.05;;
47481;SDS011;33219;47.410;9.730;2024-03-23T04:11:05;3.77;;;2.40;;
47481;SDS011;33219;47.410;9.730;2024-03-23T04:13:32;4.00;;;2.30;;
47481;SDS011;33219;47.410;9.730;2024-03-23T04:16:00;3.87;;;2.00;;
47481;SDS011;33219;47.410;9.730;2024-03-23T04:18:27;4.75;;;2.37;;
47481;SDS011;33219;47.410;9.730;2024-03-23T04:20:55;3.45;;;2.30;;
47481;SDS011;33219;47.410;9.730;2024-03-23T04:23:22;3.83;;;1.90;;
47481;SDS011;33219;47.410;9.730;2024-03-23T04:25:50;4.28;;;2.10;;
47481;SDS011;33219;47.410;9.730;2024-03-23T04:28:19;4.92;;;2.50;;
47481;SDS011;33219;47.410;9.730;2024-03-23T04:30:46;3.25;;;2.15;;
47481;SDS011;33219;47.410;9.730;2024-03-23T04:33:14;4.55;;;1.90;;
47481;SDS011;33219;47.410;9.730;2024-03-23T04:35:42;3.85;;;2.15;;
47481;SDS011;33219;47.410;9.730;2024-03-23T04:38:09;3.50;;;1.92;;
47481;SDS011;33219;47.410;9.730;2024-03-23T04:40:37;3.12;;;1.77;;
47481;SDS011;33219;47.410;9.730;2024-03-23T04:43:04;3.27;;;1.80;;
47481;SDS011;33219;47.410;9.730;2024-03-23T04:45:32;5.00;;;2.40;;
47481;SDS011;33219;47.410;9.730;2024-03-23T04:47:59;3.58;;;2.20;;
47481;SDS011;33219;47.410;9.730;2024-03-23T04:50:27;4.53;;;2.20;;
47481;SDS011;33219;47.410;9.730;2024-03-23T04:52:54;5.30;;;2.45;;
47481;SDS011;33219;47.410;9.730;2024-03-23T04:55:22;5.80;;;2.30;;
47481;SDS011;33219;47.410;9.730;2024-03-23T04:57:49;3.67;;;2.02;;
47481;SDS011;33219;47.410;9.730;2024-03-23T05:00:17;4.22;;;2.33;;
47481;SDS011;33219;47.410;9.730;2024-03-23T05:02:45;4.42;;;2.30;;
47481;SDS011;33219;47.410;9.730;2024-03-23T05:05:12;5.87;;;2.55;;
47481;SDS011;33219;47.410;9.730;2024-03-23T05:07:40;4.47;;;2.52;;
47481;SDS011;33219;47.410;9.730;2024-03-23T05:10:09;5.62;;;2.30;;
47481;SDS011;33219;47.410;9.730;2024-03-23T05:12:37;4.42;;;2.45;;
47481;SDS011;33219;47.410;9.730;2024-03-23T05:15:05;3.65;;;2.52;;
47481;SDS011;33219;47.410;9.730;2024-03-23T05:17:34;4.08;;;2.25;;
47481;SDS011;33219;47.410;9.730;2024-03-23T05:20:03;4.28;;;2.37;;
47481;SDS011;33219;47.410;9.730;2024-03-23T05:22:33;5.95;;;2.72;;
47481;SDS011;33219;47.410;9.730;2024-03-23T05:25:00;7.53;;;2.85;;
47481;SDS011;33219;47.410;9.730;2024-03-23T05:27:32;5.53;;;2.58;;
47481;SDS011;33219;47.410;9.730;2024-03-23T05:29:59;4.85;;;2.52;;
47481;SDS011;33219;47.410;9.730;2024-03-23T05:32:27;3.98;;;2.40;;
47481;SDS011;33219;47.410;9.730;2024-03-23T05:34:54;4.20;;;2.30;;
47481;SDS011;33219;47.410;9.730;2024-03-23T05:37:22;3.67;;;2.60;;
47481;SDS011;33219;47.410;9.730;2024-03-23T05:39:50;5.87;;;3.10;;
47481;SDS011;33219;47.410;9.730;2024-03-23T05:42:18;4.90;;;3.22;;
47481;SDS011;33219;47.410;9.730;2024-03-23T05:44:46;6.35;;;2.47;;
47481;SDS011;33219;47.410;9.730;2024-03-23T05:47:14;4.92;;;2.10;;
47481;SDS011;33219;47.410;9.730;2024-03-23T05:49:42;2.85;;;1.98;;
47481;SDS011;33219;47.410;9.730;2024-03-23T05:52:10;3.90;;;1.90;;
47481;SDS011;33219;47.410;9.730;2024-03-23T05:54:37;3.85;;;1.77;;
47481;SDS011;33219;47.410;9.730;2024-03-23T05:57:05;3.27;;;1.67;;
47481;SDS011;33219;47.410;9.730;2024-03-23T05:59:34;2.75;;;1.65;;
47481;SDS011;33219;47.410;9.730;2024-03-23T06:02:02;4.35;;;2.00;;
47481;SDS011;33219;47.410;9.730;2024-03-23T06:04:29;3.05;;;1.95;;
47481;SDS011;33219;47.410;9.730;2024-03-23T06:06:57;3.33;;;1.85;;
47481;SDS011;33219;47.410;9.730;2024-03-23T06:09:24;2.87;;;1.90;;
47481;SDS011;33219;47.410;9.730;2024-03-23T06:11:52;4.12;;;2.17;;
47481;SDS011;33219;47.410;9.730;2024-03-23T06:14:19;5.08;;;2.30;;
47481;SDS011;33219;47.410;9.730;2024-03-23T06:16:47;3.45;;;2.17;;
47481;SDS011;33219;47.410;9.730;2024-03-23T06:19:15;3.27;;;2.20;;
47481;SDS011;33219;47.410;9.730;2024-03-23T06:21:43;3.00;;;2.30;;
47481;SDS011;33219;47.410;9.730;2024-03-23T06:24:11;3.85;;;2.12;;
47481;SDS011;33219;47.410;9.730;2024-03-23T06:26:39;3.47;;;2.00;;
47481;SDS011;33219;47.410;9.730;2024-03-23T06:29:06;6.25;;;2.30;;
47481;SDS011;33219;47.410;9.730;2024-03-23T06:31:34;3.60;;;2.10;;
47481;SDS011;33219;47.410;9.730;2024-03-23T06:34:02;3.15;;;2.00;;
47481;SDS011;33219;47.410;9.730;2024-03-23T06:36:29;6.08;;;2.20;;
47481;SDS011;33219;47.410;9.730;2024-03-23T06:38:57;3.02;;;2.00;;
47481;SDS011;33219;47.410;9.730;2024-03-23T06:41:25;3.22;;;1.50;;
47481;SDS011;33219;47.410;9.730;2024-03-23T06:43:53;4.28;;;2.10;;
47481;SDS011;33219;47.410;9.730;2024-03-23T06:46:20;2.30;;;1.65;;
47481;SDS011;33219;47.410;9.730;2024-03-23T06:48:47;4.50;;;2.30;;
47481;SDS011;33219;47.410;9.730;2024-03-23T06:51:15;8.05;;;3.27;;
47481;SDS011;33219;47.410;9.730;2024-03-23T06:53:43;5.62;;;2.40;;
47481;SDS011;33219;47.410;9.730;2024-03-23T06:56:10;2.80;;;1.70;;
47481;SDS011;33219;47.410;9.730;2024-03-23T06:58:38;2.72;;;1.70;;
47481;SDS011;33219;47.410;9.730;2024-03-23T07:01:05;2.35;;;1.45;;
47481;SDS011;33219;47.410;9.730;2024-03-23T07:03:33;3.77;;;1.92;;
47481;SDS011;33219;47.410;9.730;2024-03-23T07:06:00;3.55;;;1.95;;
47481;SDS011;33219;47.410;9.730;2024-03-23T07:08:28;6.33;;;2.17;;
47481;SDS011;33219;47.410;9.730;2024-03-23T07:10:55;2.85;;;1.60;;
47481;SDS011;33219;47.410;9.730;2024-03-23T07:13:23;3.05;;;1.67;;
47481;SDS011;33219;47.410;9.730;2024-03-23T07:15:51;2.22;;;1.40;;
47481;SDS011;33219;47.410;9.730;2024-03-23T07:18:21;3.70;;;1.60;;
47481;SDS011;33219;47.410;9.730;2024-03-23T07:20:54;2.60;;;1.52;;
47481;SDS011;33219;47.410;9.730;2024-03-23T07:23:24;4.80;;;1.70;;
47481;SDS011;33219;47.410;9.730;2024-03-23T07:25:58;3.33;;;1.60;;
47481;SDS011;33219;47.410;9.730;2024-03-23T07:28:31;2.25;;;1.47;;
47481;SDS011;33219;47.410;9.730;2024-03-23T07:31:09;2.83;;;1.70;;
47481;SDS011;33219;47.410;9.730;2024-03-23T07:33:42;2.40;;;1.50;;
47481;SDS011;33219;47.410;9.730;2024-03-23T07:36:12;4.08;;;1.80;;
47481;SDS011;33219;47.410;9.730;2024-03-23T07:38:42;2.75;;;1.77;;
47481;SDS011;33219;47.410;9.730;2024-03-23T07:41:16;2.92;;;1.90;;
47481;SDS011;33219;47.410;9.730;2024-03-23T07:43:45;3.55;;;1.70;;
47481;SDS011;33219;47.410;9.730;2024-03-23T07:46:14;4.37;;;2.17;;
47481;SDS011;33219;47.410;9.730;2024-03-23T07:48:42;2.40;;;1.85;;
47481;SDS011;33219;47.410;9.730;2024-03-23T07:51:11;4.75;;;2.30;;
47481;SDS011;33219;47.410;9.730;2024-03-23T07:53:46;5.65;;;2.42;;
47481;SDS011;33219;47.410;9.730;2024-03-23T07:56:14;4.42;;;2.25;;
47481;SDS011;33219;47.410;9.730;2024-03-23T07:58:44;5.05;;;2.50;;
47481;SDS011;33219;47.410;9.730;2024-03-23T08:01:12;6.37;;;2.80;;
47481;SDS011;33219;47.410;9.730;2024-03-23T08:03:47;4.15;;;2.27;;
47481;SDS011;33219;47.410;9.730;2024-03-23T08:06:15;4.55;;;2.42;;
47481;SDS011;33219;47.410;9.730;2024-03-23T08:08:48;6.35;;;2.75;;
47481;SDS011;33219;47.410;9.730;2024-03-23T08:11:19;2.05;;;1.70;;
47481;SDS011;33219;47.410;9.730;2024-03-23T08:13:46;3.30;;;1.30;;
47481;SDS011;33219;47.410;9.730;2024-03-23T08:16:14;1.57;;;1.10;;
47481;SDS011;33219;47.410;9.730;2024-03-23T08:18:42;3.10;;;1.37;;
47481;SDS011;33219;47.410;9.730;2024-03-23T08:21:09;1.60;;;1.15;;
47481;SDS011;33219;47.410;9.730;2024-03-23T08:23:37;2.50;;;1.52;;
47481;SDS011;33219;47.410;9.730;2024-03-23T08:26:10;2.45;;;1.30;;
47481;SDS011;33219;47.410;9.730;2024-03-23T08:28:39;2.10;;;1.50;;
47481;SDS011;33219;47.410;9.730;2024-03-23T08:31:07;2.05;;;1.40;;
47481;SDS011;33219;47.410;9.730;2024-03-23T08:33:36;1.98;;;1.15;;
47481;SDS011;33219;47.410;9.730;2024-03-23T08:36:05;2.58;;;1.40;;
47481;SDS011;33219;47.410;9.730;2024-03-23T08:38:34;1.98;;;1.40;;
47481;SDS011;33219;47.410;9.730;2024-03-23T08:41:07;2.00;;;1.40;;
47481;SDS011;33219;47.410;9.730;2024-03-23T08:43:32;2.40;;;1.70;;
47481;SDS011;33219;47.410;9.730;2024-03-23T08:48:43;3.02;;;1.90;;
47481;SDS011;33219;47.410;9.730;2024-03-23T08:51:10;4.30;;;1.93;;
47481;SDS011;33219;47.410;9.730;2024-03-23T08:53:39;4.28;;;1.80;;
47481;SDS011;33219;47.410;9.730;2024-03-23T08:56:07;3.20;;;1.50;;
47481;SDS011;33219;47.410;9.730;2024-03-23T08:58:36;4.75;;;2.10;;
47481;SDS011;33219;47.410;9.730;2024-03-23T09:01:06;3.80;;;2.10;;
47481;SDS011;33219;47.410;9.730;2024-03-23T09:03:35;3.92;;;2.27;;
47481;SDS011;33219;47.410;9.730;2024-03-23T09:06:10;3.15;;;2.10;;
47481;SDS011;33219;47.410;9.730;2024-03-23T09:08:39;3.95;;;2.30;;
47481;SDS011;33219;47.410;9.730;2024-03-23T09:11:07;5.97;;;2.30;;
47481;SDS011;33219;47.410;9.730;2024-03-23T09:13:36;3.92;;;2.00;;
47481;SDS011;33219;47.410;9.730;2024-03-23T09:16:05;3.20;;;1.90;;
47481;SDS011;33219;47.410;9.730;2024-03-23T09:18:33;2.80;;;1.90;;
47481;SDS011;33219;47.410;9.730;2024-03-23T09:21:02;4.40;;;1.95;;
47481;SDS011;33219;47.410;9.730;2024-03-23T09:23:30;6.12;;;2.67;;
47481;SDS011;33219;47.410;9.730;2024-03-23T09:25:57;3.42;;;2.17;;
47481;SDS011;33219;47.410;9.730;2024-03-23T09:28:26;3.27;;;1.80;;
47481;SDS011;33219;47.410;9.730;2024-03-23T09:30:54;2.05;;;1.30;;
47481;SDS011;33219;47.410;9.730;2024-03-23T09:33:22;2.42;;;1.65;;
47481;SDS011;33219;47.410;9.730;2024-03-23T09:35:49;3.22;;;1.57;;
47481;SDS011;33219;47.410;9.730;2024-03-23T09:38:17;3.15;;;1.57;;
47481;SDS011;33219;47.410;9.730;2024-03-23T09:40:44;4.15;;;2.00;;
47481;SDS011;33219;47.410;9.730;2024-03-23T09:43:13;3.08;;;1.40;;
47481;SDS011;33219;47.410;9.730;2024-03-23T09:45:41;1.80;;;1.10;;
47481;SDS011;33219;47.410;9.730;2024-03-23T09:48:11;7.80;;;1.70;;
47481;SDS011;33219;47.410;9.730;2024-03-23T09:50:39;3.05;;;1.27;;
47481;SDS011;33219;47.410;9.730;2024-03-23T09:53:07;1.72;;;0.90;;
47481;SDS011;33219;47.410;9.730;2024-03-23T09:55:43;2.85;;;1.05;;
47481;SDS011;33219;47.410;9.730;2024-03-23T09:58:08;2.33;;;0.80;;
47481;SDS011;33219;47.410;9.730;2024-03-23T10:00:37;1.42;;;0.75;;
47481;SDS011;33219;47.410;9.730;2024-03-23T10:03:04;0.98;;;0.68;;
47481;SDS011;33219;47.410;9.730;2024-03-23T10:05:32;0.85;;;0.65;;
47481;SDS011;33219;47.410;9.730;2024-03-23T10:08:02;1.50;;;0.72;;
47481;SDS011;33219;47.410;9.730;2024-03-23T10:13:11;1.55;;;0.60;;
47481;SDS011;33219;47.410;9.730;2024-03-23T10:15:40;1.32;;;0.60;;
47481;SDS011;33219;47.410;9.730;2024-03-23T10:18:17;1.77;;;0.80;;
47481;SDS011;33219;47.410;9.730;2024-03-23T10:20:51;0.72;;;0.70;;
47481;SDS011;33219;47.410;9.730;2024-03-23T10:23:21;0.80;;;0.65;;
47481;SDS011;33219;47.410;9.730;2024-03-23T10:25:50;1.82;;;0.80;;
47481;SDS011;33219;47.410;9.730;2024-03-23T10:28:17;3.30;;;1.82;;
47481;SDS011;33219;47.410;9.730;2024-03-23T10:30:45;4.03;;;1.80;;
47481;SDS011;33219;47.410;9.730;2024-03-23T10:33:12;1.10;;;0.90;;
47481;SDS011;33219;47.410;9.730;2024-03-23T10:35:41;1.45;;;1.00;;
47481;SDS011;33219;47.410;9.730;2024-03-23T10:38:09;1.62;;;0.90;;
47481;SDS011;33219;47.410;9.730;2024-03-23T10:40:37;2.22;;;0.90;;
47481;SDS011;33219;47.410;9.730;2024-03-23T10:43:06;1.72;;;1.10;;
47481;SDS011;33219;47.410;9.730;2024-03-23T10:45:34;1.27;;;0.80;;
47481;SDS011;33219;47.410;9.730;2024-03-23T10:48:02;1.17;;;0.93;;
47481;SDS011;33219;47.410;9.730;2024-03-23T10:50:31;1.90;;;1.22;;
47481;SDS011;33219;47.410;9.730;2024-03-23T10:53:00;1.45;;;0.93;;
47481;SDS011;33219;47.410;9.730;2024-03-23T10:55:28;2.17;;;1.17;;
47481;SDS011;33219;47.410;9.730;2024-03-23T10:57:56;2.80;;;1.57;;
47481;SDS011;33219;47.410;9.730;2024-03-23T11:00:25;5.22;;;1.98;;
47481;SDS011;33219;47.410;9.730;2024-03-23T11:02:53;5.10;;;1.50;;
47481;SDS011;33219;47.410;9.730;2024-03-23T11:07:57;2.45;;;1.47;;
47481;SDS011;33219;47.410;9.730;2024-03-23T11:10:28;2.67;;;1.35;;
47481;SDS011;33219;47.410;9.730;2024-03-23T11:13:44;4.35;;;1.70;;
47481;SDS011;33219;47.410;9.730;2024-03-23T11:15:46;2.83;;;1.45;;
47481;SDS011;33219;47.410;9.730;2024-03-23T11:18:19;1.37;;;1.07;;
47481;SDS011;33219;47.410;9.730;2024-03-23T11:20:44;2.33;;;1.00;;
47481;SDS011;33219;47.410;9.730;2024-03-23T11:23:27;3.60;;;1.10;;
47481;SDS011;33219;47.410;9.730;2024-03-23T11:25:55;5.22;;;1.55;;
47481;SDS011;33219;47.410;9.730;2024-03-23T11:28:23;5.37;;;1.98;;
47481;SDS011;33219;47.410;9.730;2024-03-23T11:30:50;4.42;;;1.70;;
47481;SDS011;33219;47.410;9.730;2024-03-23T11:33:18;3.58;;;1.70;;
47481;SDS011;33219;47.410;9.730;2024-03-23T11:35:46;5.35;;;1.92;;
47481;SDS011;33219;47.410;9.730;2024-03-23T11:38:14;3.30;;;1.60;;
47481;SDS011;33219;47.410;9.730;2024-03-23T11:40:46;1.90;;;1.30;;
47481;SDS011;33219;47.410;9.730;2024-03-23T11:43:15;3.87;;;1.42;;
47481;SDS011;33219;47.410;9.730;2024-03-23T11:45:44;3.65;;;1.80;;
47481;SDS011;33219;47.410;9.730;2024-03-23T11:48:23;5.42;;;2.33;;
47481;SDS011;33219;47.410;9.730;2024-03-23T11:50:48;7.08;;;2.50;;
47481;SDS011;33219;47.410;9.730;2024-03-23T11:53:17;4.08;;;1.50;;
47481;SDS011;33219;47.410;9.730;2024-03-23T11:55:48;4.97;;;1.80;;
47481;SDS011;33219;47.410;9.730;2024-03-23T11:58:18;4.92;;;1.45;;
47481;SDS011;33219;47.410;9.730;2024-03-23T12:00:57;6.42;;;2.27;;
47481;SDS011;33219;47.410;9.730;2024-03-23T12:03:31;3.30;;;1.80;;
47481;SDS011;33219;47.410;9.730;2024-03-23T12:05:55;4.92;;;1.82;;
47481;SDS011;33219;47.410;9.730;2024-03-23T12:08:28;5.90;;;1.72;;
47481;SDS011;33219;47.410;9.730;2024-03-23T12:11:12;3.75;;;1.62;;
47481;SDS011;33219;47.410;9.730;2024-03-23T12:13:42;4.53;;;1.80;;
47481;SDS011;33219;47.410;9.730;2024-03-23T12:16:12;6.25;;;2.20;;
47481;SDS011;33219;47.410;9.730;2024-03-23T12:18:41;4.72;;;1.92;;
47481;SDS011;33219;47.410;9.730;2024-03-23T12:21:10;4.55;;;1.70;;
47481;SDS011;33219;47.410;9.730;2024-03-23T12:23:41;6.35;;;1.80;;
47481;SDS011;33219;47.410;9.730;2024-03-23T12:28:38;3.85;;;1.40;;
47481;SDS011;33219;47.410;9.730;2024-03-23T12:31:05;4.80;;;1.75;;
47481;SDS011;33219;47.410;9.730;2024-03-23T12:33:33;4.03;;;1.72;;
47481;SDS011;33219;47.410;9.730;2024-03-23T12:36:00;4.97;;;1.70;;
47481;SDS011;33219;47.410;9.730;2024-03-23T12:38:28;5.05;;;2.12;;
47481;SDS011;33219;47.410;9.730;2024-03-23T12:40:55;3.75;;;1.50;;
47481;SDS011;33219;47.410;9.730;2024-03-23T12:43:23;4.55;;;1.77;;
47481;SDS011;33219;47.410;9.730;2024-03-23T12:45:50;3.00;;;1.25;;
47481;SDS011;33219;47.410;9.730;2024-03-23T12:48:18;5.58;;;2.08;;
47481;SDS011;33219;47.410;9.730;2024-03-23T12:50:45;4.80;;;1.67;;
47481;SDS011;33219;47.410;9.730;2024-03-23T12:53:13;3.70;;;1.72;;
47481;SDS011;33219;47.410;9.730;2024-03-23T12:55:40;5.45;;;2.00;;
47481;SDS011;33219;47.410;9.730;2024-03-23T12:58:08;4.60;;;1.65;;
47481;SDS011;33219;47.410;9.730;2024-03-23T13:00:36;4.83;;;1.70;;
47481;SDS011;33219;47.410;9.730;2024-03-23T13:03:03;8.70;;;2.30;;
47481;SDS011;33219;47.410;9.730;2024-03-23T13:05:31;4.60;;;2.00;;
47481;SDS011;33219;47.410;9.730;2024-03-23T13:07:58;3.90;;;1.55;;
47481;SDS011;33219;47.410;9.730;2024-03-23T13:10:26;4.92;;;1.87;;
47481;SDS011;33219;47.410;9.730;2024-03-23T13:12:53;5.10;;;1.60;;
47481;SDS011;33219;47.410;9.730;2024-03-23T13:15:21;4.30;;;1.80;;
47481;SDS011;33219;47.410;9.730;2024-03-23T13:17:48;5.40;;;2.00;;
47481;SDS011;33219;47.410;9.730;2024-03-23T13:20:18;5.33;;;1.98;;
47481;SDS011;33219;47.410;9.730;2024-03-23T13:22:46;9.25;;;3.02;;
47481;SDS011;33219;47.410;9.730;2024-03-23T13:25:13;3.67;;;2.00;;
47481;SDS011;33219;47.410;9.730;2024-03-23T13:27:41;6.83;;;2.00;;
47481;SDS011;33219;47.410;9.730;2024-03-23T13:30:09;7.42;;;1.85;;
47481;SDS011;33219;47.410;9.730;2024-03-23T13:32:37;4.90;;;2.10;;
47481;SDS011;33219;47.410;9.730;2024-03-23T13:35:05;3.27;;;1.57;;
47481;SDS011;33219;47.410;9.730;2024-03-23T13:37:33;4.33;;;1.50;;
47481;SDS011;33219;47.410;9.730;2024-03-23T13:40:00;4.97;;;1.62;;
47481;SDS011;33219;47.410;9.730;2024-03-23T13:42:28;6.75;;;1.80;;
47481;SDS011;33219;47.410;9.730;2024-03-23T13:44:55;5.08;;;1.98;;
47481;SDS011;33219;47.410;9.730;2024-03-23T13:47:23;4.22;;;1.50;;
47481;SDS011;33219;47.410;9.730;2024-03-23T13:49:50;4.95;;;1.60;;
47481;SDS011;33219;47.410;9.730;2024-03-23T13:52:18;4.85;;;1.32;;
47481;SDS011;33219;47.410;9.730;2024-03-23T13:54:47;5.30;;;1.65;;
47481;SDS011;33219;47.410;9.730;2024-03-23T13:57:15;2.77;;;1.45;;
47481;SDS011;33219;47.410;9.730;2024-03-23T13:59:43;6.55;;;1.52;;
47481;SDS011;33219;47.410;9.730;2024-03-23T14:02:10;4.83;;;1.80;;
47481;SDS011;33219;47.410;9.730;2024-03-23T14:04:39;5.28;;;1.77;;
47481;SDS011;33219;47.410;9.730;2024-03-23T14:07:07;3.98;;;2.30;;
47481;SDS011;33219;47.410;9.730;2024-03-23T14:09:35;7.40;;;1.80;;
47481;SDS011;33219;47.410;9.730;2024-03-23T14:12:02;6.05;;;1.67;;
47481;SDS011;33219;47.410;9.730;2024-03-23T14:14:30;2.77;;;1.30;;
47481;SDS011;33219;47.410;9.730;2024-03-23T14:16:57;3.92;;;1.60;;
47481;SDS011;33219;47.410;9.730;2024-03-23T14:19:25;2.37;;;1.12;;
47481;SDS011;33219;47.410;9.730;2024-03-23T14:21:52;2.33;;;1.37;;
47481;SDS011;33219;47.410;9.730;2024-03-23T14:24:20;4.37;;;1.60;;
47481;SDS011;33219;47.410;9.730;2024-03-23T14:26:47;3.62;;;1.40;;
47481;SDS011;33219;47.410;9.730;2024-03-23T14:29:15;4.45;;;1.50;;
47481;SDS011;33219;47.410;9.730;2024-03-23T14:31:42;3.20;;;1.52;;
47481;SDS011;33219;47.410;9.730;2024-03-23T14:34:10;3.47;;;1.37;;
47481;SDS011;33219;47.410;9.730;2024-03-23T14:36:38;5.22;;;1.90;;
47481;SDS011;33219;47.410;9.730;2024-03-23T14:39:05;3.80;;;1.50;;
47481;SDS011;33219;47.410;9.730;2024-03-23T14:41:33;3.22;;;1.60;;
47481;SDS011;33219;47.410;9.730;2024-03-23T14:44:00;4.37;;;1.93;;
47481;SDS011;33219;47.410;9.730;2024-03-23T14:46:28;5.95;;;2.98;;
47481;SDS011;33219;47.410;9.730;2024-03-23T14:48:55;3.33;;;1.95;;
47481;SDS011;33219;47.410;9.730;2024-03-23T14:51:24;3.60;;;1.85;;
47481;SDS011;33219;47.410;9.730;2024-03-23T14:53:53;6.45;;;2.15;;
47481;SDS011;33219;47.410;9.730;2024-03-23T14:56:20;5.70;;;2.67;;
47481;SDS011;33219;47.410;9.730;2024-03-23T14:58:51;6.05;;;2.35;;
47481;SDS011;33219;47.410;9.730;2024-03-23T15:01:21;5.85;;;2.50;;
47481;SDS011;33219;47.410;9.730;2024-03-23T15:03:49;4.47;;;1.95;;
47481;SDS011;33219;47.410;9.730;2024-03-23T15:06:18;4.37;;;2.17;;
47481;SDS011;33219;47.410;9.730;2024-03-23T15:08:46;5.20;;;2.27;;
47481;SDS011;33219;47.410;9.730;2024-03-23T15:11:13;5.40;;;1.90;;
47481;SDS011;33219;47.410;9.730;2024-03-23T15:13:43;6.85;;;2.20;;
47481;SDS011;33219;47.410;9.730;2024-03-23T15:16:10;5.53;;;2.00;;
47481;SDS011;33219;47.410;9.730;2024-03-23T15:18:38;4.92;;;1.90;;
47481;SDS011;33219;47.410;9.730;2024-03-23T15:21:05;3.30;;;1.90;;
47481;SDS011;33219;47.410;9.730;2024-03-23T15:23:34;3.35;;;1.75;;
47481;SDS011;33219;47.410;9.730;2024-03-23T15:26:02;5.05;;;2.05;;
47481;SDS011;33219;47.410;9.730;2024-03-23T15:28:31;4.80;;;2.60;;
47481;SDS011;33219;47.410;9.730;2024-03-23T15:31:10;4.03;;;2.17;;
47481;SDS011;33219;47.410;9.730;2024-03-23T15:33:37;5.05;;;2.12;;
47481;SDS011;33219;47.410;9.730;2024-03-23T15:36:06;4.50;;;1.90;;
47481;SDS011;33219;47.410;9.730;2024-03-23T15:38:34;4.85;;;2.30;;
47481;SDS011;33219;47.410;9.730;2024-03-23T15:41:02;7.37;;;2.87;;
47481;SDS011;33219;47.410;9.730;2024-03-23T15:43:29;5.47;;;2.92;;
47481;SDS011;33219;47.410;9.730;2024-03-23T15:45:58;7.40;;;2.70;;
47481;SDS011;33219;47.410;9.730;2024-03-23T15:48:27;5.92;;;2.35;;
47481;SDS011;33219;47.410;9.730;2024-03-23T15:50:56;7.83;;;2.50;;
47481;SDS011;33219;47.410;9.730;2024-03-23T15:53:27;5.55;;;2.33;;
47481;SDS011;33219;47.410;9.730;2024-03-23T15:58:25;6.65;;;2.60;;
47481;SDS011;33219;47.410;9.730;2024-03-23T16:00:59;3.80;;;1.98;;
47481;SDS011;33219;47.410;9.730;2024-03-23T16:03:30;6.50;;;1.62;;
47481;SDS011;33219;47.410;9.730;2024-03-23T16:06:02;3.20;;;1.30;;
47481;SDS011;33219;47.410;9.730;2024-03-23T16:08:30;3.30;;;1.42;;
47481;SDS011;33219;47.410;9.730;2024-03-23T16:11:02;5.00;;;1.50;;